createdAt,value
2023-02-22T00:03:26.543Z,100448.91
2023-02-22T00:08:31.112Z,100445.47
2023-02-22T00:13:32.644Z,100450.69
2023-02-22T00:18:34.275Z,100441.72
2023-02-22T00:23:36.804Z,100440.00
2023-02-22T00:28:38.470Z,100433.94
2023-02-22T00:33:40.440Z,100438.34
2023-02-22T00:38:43.005Z,100428.13
2023-02-22T00:43:44.598Z,100430.00
2023-02-22T00:48:46.102Z,100430.44
2023-02-22T00:53:47.806Z,100421.03
2023-02-22T00:58:49.236Z,100424.03
2023-02-22T01:03:51.244Z,100415.88
2023-02-22T01:08:53.151Z,100409.97
2023-02-22T01:13:56.012Z,100405.69
2023-02-22T01:18:57.670Z,100395.97
2023-02-22T01:23:59.255Z,100391.94
2023-02-22T01:29:01.510Z,100396.22
2023-02-22T01:34:02.970Z,100390.03
2023-02-22T01:39:04.452Z,100376.50
2023-02-22T01:44:21.098Z,100375.47
2023-02-22T01:49:26.742Z,100367.06
2023-02-22T01:54:34.942Z,100360.03
2023-02-22T01:59:40.284Z,100355.94
2023-02-22T02:04:42.507Z,100351.16
2023-02-22T02:10:00.705Z,100358.78
2023-02-22T02:15:20.207Z,100352.63
2023-02-22T02:20:38.417Z,100348.25
2023-02-22T02:26:01.280Z,100350.09
2023-02-22T02:31:31.055Z,100345.19
2023-02-22T02:37:02.736Z,100345.63
2023-02-22T02:42:08.414Z,100347.31
2023-02-22T02:47:32.668Z,100343.31
2023-02-22T02:52:35.454Z,100338.09
2023-02-22T02:57:37.777Z,100338.84
2023-02-22T03:03:24.751Z,100338.19
2023-02-22T03:08:43.973Z,100338.00
2023-02-22T03:13:45.516Z,100336.97
2023-02-22T03:19:27.080Z,100324.63
2023-02-22T03:24:35.288Z,100328.88
2023-02-22T03:29:41.067Z,100316.72
2023-02-22T03:34:45.490Z,100316.38
2023-02-22T03:39:49.736Z,100313.28
2023-02-22T03:44:53.505Z,100304.97
2023-02-22T03:50:00.370Z,100308.13
2023-02-22T03:55:03.257Z,100307.31
2023-02-22T04:00:08.864Z,100308.44
2023-02-22T04:05:10.756Z,100308.63
2023-02-22T04:10:16.708Z,100306.25
2023-02-22T04:15:20.629Z,100301.50
2023-02-22T04:20:22.262Z,100289.16
2023-02-22T04:25:24.443Z,100293.41
2023-02-22T04:30:26.125Z,100293.22
2023-02-22T04:35:28.062Z,100296.72
2023-02-22T04:40:30.072Z,100290.88
2023-02-22T04:45:31.563Z,100298.56
2023-02-22T04:50:33.165Z,100302.03
2023-02-22T04:55:34.673Z,100297.59
2023-02-22T05:00:36.271Z,100289.50
2023-02-22T05:05:37.782Z,100284.38
2023-02-22T05:10:39.278Z,100274.66
2023-02-22T05:15:40.786Z,100280.78
2023-02-22T05:20:42.480Z,100279.16
2023-02-22T05:25:43.991Z,100277.28
2023-02-22T05:30:46.278Z,100279.50
2023-02-22T05:35:47.906Z,100270.78
2023-02-22T05:40:49.816Z,100277.34
2023-02-22T05:45:51.294Z,100276.44
2023-02-22T05:50:52.986Z,100268.91
2023-02-22T05:55:54.557Z,100264.03
2023-02-22T06:00:57.497Z,100272.94
2023-02-22T06:05:58.986Z,100279.84
2023-02-22T06:11:00.950Z,100277.13
2023-02-22T06:16:03.422Z,100273.97
2023-02-22T06:21:08.515Z,100272.19
2023-02-22T06:26:10.038Z,100287.78
2023-02-22T06:31:11.582Z,100293.28
2023-02-22T06:36:13.150Z,100288.81
2023-02-22T06:41:14.921Z,100291.06
2023-02-22T06:46:16.715Z,100291.50
2023-02-22T06:51:18.541Z,100291.41
2023-02-22T06:56:20.863Z,100296.44
2023-02-22T07:01:22.753Z,100298.13
2023-02-22T07:06:24.426Z,100297.34
2023-02-22T07:11:26.173Z,100297.44
2023-02-22T07:16:27.813Z,100297.44
2023-02-22T07:21:30.350Z,100302.28
2023-02-22T07:26:39.950Z,100304.34
2023-02-22T07:31:41.675Z,100309.88
2023-02-22T07:36:43.320Z,100302.56
2023-02-22T07:41:44.843Z,100308.03
2023-02-22T07:46:49.407Z,100299.00
2023-02-22T07:51:51.228Z,100296.84
2023-02-22T07:56:52.954Z,100293.63
2023-02-22T08:01:54.529Z,100291.75
2023-02-22T08:06:56.662Z,100296.69
2023-02-22T08:11:58.429Z,100286.16
2023-02-22T08:17:00.311Z,100287.94
2023-02-22T08:22:01.964Z,100285.88
2023-02-22T08:27:03.591Z,100279.16
2023-02-22T08:32:05.452Z,100273.13
2023-02-22T08:37:07.169Z,100276.19
2023-02-22T08:42:08.993Z,100269.13
2023-02-22T08:47:11.066Z,100267.44
2023-02-22T08:52:12.602Z,100275.09
2023-02-22T08:57:14.923Z,100266.81
2023-02-22T09:02:19.013Z,100260.00
2023-02-22T09:07:20.615Z,100254.09
2023-02-22T09:12:22.138Z,100258.72
2023-02-22T09:17:23.644Z,100239.94
2023-02-22T09:22:25.192Z,100242.56
2023-02-22T09:27:27.137Z,100232.84
2023-02-22T09:32:28.784Z,100229.69
2023-02-22T09:37:30.549Z,100227.66
2023-02-22T09:42:38.373Z,100228.78
2023-02-22T09:47:45.025Z,100227.22
2023-02-22T09:53:15.606Z,100227.53
2023-02-22T09:58:50.952Z,100217.19
2023-02-22T10:04:13.231Z,100207.34
2023-02-22T10:09:14.817Z,100210.31
2023-02-22T10:14:30.025Z,100205.03
2023-02-22T10:19:54.846Z,100203.88
2023-02-22T10:25:11.431Z,100196.31
2023-02-22T10:30:25.007Z,100187.63
2023-02-22T10:35:29.586Z,100187.22
2023-02-22T10:40:31.172Z,100176.19
2023-02-22T10:45:34.455Z,100171.44
2023-02-22T10:50:39.546Z,100171.31
2023-02-22T10:56:22.524Z,100159.31
2023-02-22T11:01:33.301Z,100157.63
2023-02-22T11:06:35.720Z,100148.72
2023-02-22T11:11:41.290Z,100150.09
2023-02-22T11:16:52.801Z,100142.75
2023-02-22T11:22:28.738Z,100137.25
2023-02-22T11:27:40.338Z,100139.88
2023-02-22T11:32:47.632Z,100133.38
2023-02-22T11:37:49.109Z,100122.78
2023-02-22T11:43:07.562Z,100117.81
2023-02-22T11:48:22.212Z,100114.63
2023-02-22T11:53:42.166Z,100109.09
2023-02-22T11:58:49.956Z,100103.16
2023-02-22T12:04:13.234Z,100089.03
2023-02-22T12:09:35.934Z,100087.88
2023-02-22T12:14:57.576Z,100079.66
2023-02-22T12:20:18.903Z,100073.72
2023-02-22T12:25:26.772Z,100063.00
2023-02-22T12:30:33.186Z,100068.28
2023-02-22T12:35:39.282Z,100072.25
2023-02-22T12:41:03.391Z,100068.69
2023-02-22T12:46:20.314Z,100069.03
2023-02-22T12:51:38.525Z,100077.78
2023-02-22T12:57:15.047Z,100073.25
2023-02-22T13:02:28.559Z,100079.66
2023-02-22T13:07:42.116Z,100072.69
2023-02-22T13:12:52.034Z,100075.66
2023-02-22T13:18:15.289Z,100072.72
2023-02-22T13:23:39.654Z,100069.13
2023-02-22T13:28:50.678Z,100068.31
2023-02-22T13:34:16.225Z,100055.16
2023-02-22T13:39:49.726Z,100053.94
2023-02-22T13:45:22.352Z,100049.28
2023-02-22T13:51:01.270Z,100045.25
2023-02-22T13:56:03.315Z,100035.88
2023-02-22T14:01:05.160Z,100034.44
2023-02-22T14:06:09.220Z,100037.78
2023-02-22T14:11:13.443Z,100031.53
2023-02-22T14:16:21.824Z,100033.38
2023-02-22T14:21:23.541Z,100038.69
2023-02-22T14:26:29.076Z,100029.72
2023-02-22T14:31:36.930Z,100033.38
2023-02-22T14:36:42.846Z,100025.81
2023-02-22T14:41:57.631Z,100029.31
2023-02-22T14:47:04.187Z,100022.09
2023-02-22T14:52:20.249Z,100027.06
2023-02-22T14:57:44.677Z,100026.25
2023-02-22T15:02:51.468Z,100015.13
2023-02-22T15:07:59.958Z,100020.13
2023-02-22T15:13:04.740Z,100022.78
2023-02-22T15:18:17.656Z,100024.16
2023-02-22T15:23:19.297Z,100030.16
2023-02-22T15:28:23.210Z,100032.22
2023-02-22T15:33:29.643Z,100032.50
2023-02-22T15:38:31.139Z,100032.22
2023-02-22T15:43:34.565Z,100030.56
2023-02-22T15:48:36.216Z,100024.75
2023-02-22T15:53:44.942Z,100024.03
2023-02-22T15:58:47.934Z,100025.28
2023-02-22T16:03:53.217Z,100021.53
2023-02-22T16:08:56.552Z,100017.38
2023-02-22T16:14:29.848Z,100022.50
2023-02-22T16:19:42.090Z,100028.06
2023-02-22T16:24:44.146Z,100024.72
2023-02-22T16:30:15.571Z,100027.19
2023-02-22T16:35:28.172Z,100034.97
2023-02-22T16:40:56.603Z,100035.28
2023-02-22T16:45:58.400Z,100039.00
2023-02-22T16:51:08.896Z,100042.19
2023-02-22T16:56:14.179Z,100051.63
2023-02-22T17:01:17.734Z,100059.25
2023-02-22T17:06:20.171Z,100051.47
2023-02-22T17:11:21.838Z,100057.19
2023-02-22T17:16:23.420Z,100061.66
2023-02-22T17:21:25.112Z,100053.06
2023-02-22T17:26:26.660Z,100064.81
2023-02-22T17:31:29.421Z,100070.22
2023-02-22T17:36:32.413Z,100077.41
2023-02-22T17:41:34.034Z,100077.66
2023-02-22T17:46:36.910Z,100074.75
2023-02-22T17:51:39.882Z,100081.22
2023-02-22T17:56:41.315Z,100085.72
2023-02-22T18:01:42.866Z,100078.75
2023-02-22T18:06:44.725Z,100094.63
2023-02-22T18:11:46.420Z,100094.69
2023-02-22T18:16:48.053Z,100090.50
2023-02-22T18:21:49.631Z,100095.47
2023-02-22T18:26:51.360Z,100094.41
2023-02-22T18:31:53.180Z,100087.41
2023-02-22T18:36:55.499Z,100089.69
2023-02-22T18:41:57.169Z,100096.56
2023-02-22T18:46:58.708Z,100096.81
2023-02-22T18:52:00.264Z,100096.59
2023-02-22T18:57:01.681Z,100093.06
2023-02-22T19:02:03.313Z,100092.19
2023-02-22T19:07:05.897Z,100094.34
2023-02-22T19:12:07.585Z,100093.50
2023-02-22T19:17:09.182Z,100096.03
2023-02-22T19:22:11.578Z,100096.13
2023-02-22T19:27:13.914Z,100091.13
2023-02-22T19:32:15.650Z,100094.59
2023-02-22T19:37:17.474Z,100089.69
2023-02-22T19:42:18.920Z,100087.91
2023-02-22T19:47:20.616Z,100092.34
2023-02-22T19:52:22.211Z,100093.03
2023-02-22T19:57:23.944Z,100096.19
2023-02-22T20:02:25.569Z,100098.81
2023-02-22T20:07:27.343Z,100094.97
2023-02-22T20:12:29.022Z,100097.25
2023-02-22T20:17:30.788Z,100089.56
2023-02-22T20:22:32.597Z,100092.72
2023-02-22T20:27:34.305Z,100098.72
2023-02-22T20:32:37.576Z,100102.28
2023-02-22T20:37:39.590Z,100098.72
2023-02-22T20:42:41.481Z,100098.81
2023-02-22T20:47:43.133Z,100104.53
2023-02-22T20:52:45.037Z,100107.94
2023-02-22T20:57:46.813Z,100111.97
2023-02-22T21:02:53.419Z,100119.16
2023-02-22T21:07:57.675Z,100115.81
2023-02-22T21:12:59.918Z,100120.31
2023-02-22T21:18:04.051Z,100118.28
2023-02-22T21:23:05.741Z,100115.75
2023-02-22T21:28:07.393Z,100104.41
2023-02-22T21:33:08.959Z,100105.22
2023-02-22T21:38:10.534Z,100106.06
2023-02-22T21:43:17.433Z,100108.16
2023-02-22T21:48:43.083Z,100110.78
2023-02-22T21:53:47.646Z,100109.06
2023-02-22T21:59:15.347Z,100111.72
2023-02-22T22:04:22.477Z,100112.78
2023-02-22T22:09:24.940Z,100116.38
2023-02-22T22:14:27.434Z,100111.00
2023-02-22T22:19:30.603Z,100117.94
2023-02-22T22:24:32.020Z,100113.63
2023-02-22T22:29:33.695Z,100113.41
2023-02-22T22:34:35.270Z,100113.84
2023-02-22T22:39:36.882Z,100110.88
2023-02-22T22:44:38.530Z,100106.47
2023-02-22T22:49:40.179Z,100113.66
2023-02-22T22:54:42.860Z,100096.50
2023-02-22T22:59:44.384Z,100104.75
2023-02-22T23:04:52.258Z,100103.09
2023-02-22T23:09:53.944Z,100102.88
2023-02-22T23:14:55.478Z,100104.41
2023-02-22T23:19:57.603Z,100113.97
2023-02-22T23:24:59.210Z,100115.53
2023-02-22T23:30:00.793Z,100105.34
2023-02-22T23:35:02.410Z,100106.91
2023-02-22T23:40:04.276Z,100100.25
2023-02-22T23:45:08.068Z,100101.56
2023-02-22T23:50:10.596Z,100105.81
2023-02-22T23:55:12.848Z,100112.69
